Spar Hydra — LAKL7 — position and weather

sailwx.info

Track history (hours):
 
Tides and Currents Weather Stations Pressure Air Temp Water Temp Dewpoint Dewpoint Depression Visibility Wind Speed Wind Dir Waves Ship Positions

Spar Hydra

Last reported at 2017-Sep-26 06:59 UTC. Time now 2017-Sep-26 21:56 UTC.
Position N 33°08' W 008°38'.

Length 190 m; draft 12.5 m.

Type: Cargo ship. MMSI: 259701000.

Date/timePositionNaut miles runAvg speedWind from/ knotsBaromVisibWave heightAir tempDewpointWater temp
2017-Sep-26 06:59N 33°08' W 008°38'0 0.0
2017-Sep-25 05:56N 33°08' W 008°38'0 0.0
2017-Sep-24 15:41N 33°08' W 008°38'  
2017-Sep-17 14:57N 34°39' W 007°28'12010.1
2017-Sep-17 03:06N 35°58' W 005°36'2 8.3
2017-Sep-17 02:52N 35°58' W 005°34'3 8.4
2017-Sep-17 02:30N 35°59' W 005°30'5 9.0
2017-Sep-17 02:00N 36°00' W 005°25'4 8.6
2017-Sep-17 01:30N 36°02' W 005°20'4 8.2
2017-Sep-17 01:00N 36°02' W 005°15'4 7.9
2017-Sep-17 00:28N 36°03' W 005°10'  
Track history (hours):
 
Tides and Currents Weather Stations Pressure Air Temp Water Temp Dewpoint Dewpoint Depression Visibility Wind Speed Wind Dir Waves Ship Positions

Spar Hydra

Last reported at 2017-Sep-26 06:59 UTC. Time now 2017-Sep-26 21:56 UTC.
Position N 33°08' W 008°38'.

Length 190 m; draft 12.5 m.

Type: Cargo ship. MMSI: 259701000.

Date/timePositionNaut miles runAvg speedWind from/ knotsBaromVisibWave heightAir tempDewpointWater temp
2017-Sep-26 06:59N 33°08' W 008°38'0 0.0
2017-Sep-25 05:56N 33°08' W 008°38'0 0.0
2017-Sep-24 15:41N 33°08' W 008°38'  
2017-Sep-17 14:57N 34°39' W 007°28'12010.1
2017-Sep-17 03:06N 35°58' W 005°36'2 8.3
2017-Sep-17 02:52N 35°58' W 005°34'3 8.4
2017-Sep-17 02:30N 35°59' W 005°30'5 9.0
2017-Sep-17 02:00N 36°00' W 005°25'4 8.6
2017-Sep-17 01:30N 36°02' W 005°20'4 8.2
2017-Sep-17 01:00N 36°02' W 005°15'4 7.9
2017-Sep-17 00:28N 36°03' W 005°10'  

Dump ship's entire track history